createdAt,value
2023-05-16T00:02:06.242Z,3.58
2023-05-16T00:04:33.086Z,3.60
2023-05-16T00:06:59.485Z,3.90
2023-05-16T00:09:25.683Z,4.30
2023-05-16T00:11:51.921Z,4.38
2023-05-16T00:14:19.743Z,4.50
2023-05-16T00:16:47.248Z,4.40
2023-05-16T00:19:13.736Z,4.65
2023-05-16T00:21:39.955Z,4.53
2023-05-16T00:24:06.490Z,5.10
2023-05-16T00:26:32.680Z,4.53
2023-05-16T00:28:58.904Z,4.15
2023-05-16T00:31:25.217Z,4.50
2023-05-16T00:33:51.497Z,4.32
2023-05-16T00:36:17.891Z,4.55
2023-05-16T00:38:44.269Z,4.50
2023-05-16T00:41:10.742Z,4.45
2023-05-16T00:43:36.966Z,4.43
2023-05-16T00:46:03.481Z,4.60
2023-05-16T00:48:29.815Z,5.00
2023-05-16T00:50:56.473Z,5.20
2023-05-16T00:53:23.902Z,5.03
2023-05-16T00:55:50.214Z,6.10
2023-05-16T00:58:16.649Z,5.72
2023-05-16T01:00:42.964Z,5.85
2023-05-16T01:03:09.327Z,5.90
2023-05-16T01:05:35.640Z,6.00
2023-05-16T01:08:01.841Z,5.88
2023-05-16T01:10:32.549Z,6.03
2023-05-16T01:13:06.523Z,5.50
2023-05-16T01:15:35.906Z,5.78
2023-05-16T01:18:19.045Z,6.22
2023-05-16T01:20:49.632Z,5.35
2023-05-16T01:23:19.478Z,4.85
2023-05-16T01:25:45.889Z,4.70
2023-05-16T01:28:13.511Z,4.90
2023-05-16T01:30:41.239Z,4.97
2023-05-16T01:33:08.169Z,5.88
2023-05-16T01:35:38.322Z,7.80
2023-05-16T01:38:04.510Z,7.82
2023-05-16T01:40:36.993Z,8.10
2023-05-16T01:43:05.304Z,8.10
2023-05-16T01:45:32.704Z,7.47
2023-05-16T01:48:04.860Z,7.85
2023-05-16T01:50:33.869Z,7.15
2023-05-16T01:53:01.775Z,7.45
2023-05-16T01:55:31.188Z,7.82
2023-05-16T01:57:58.969Z,7.95
2023-05-16T02:00:25.361Z,7.10
2023-05-16T02:02:51.650Z,7.60
2023-05-16T02:05:17.899Z,7.05
2023-05-16T02:07:44.312Z,6.47
2023-05-16T02:10:10.994Z,5.68
2023-05-16T02:12:37.359Z,5.60
2023-05-16T02:15:03.688Z,5.75
2023-05-16T02:17:30.181Z,4.63
2023-05-16T02:19:56.417Z,4.70
2023-05-16T02:22:22.605Z,4.50
2023-05-16T02:24:48.807Z,5.28
2023-05-16T02:27:14.999Z,6.22
2023-05-16T02:29:41.240Z,6.38
2023-05-16T02:32:07.533Z,7.45
2023-05-16T02:34:33.740Z,9.30
2023-05-16T02:36:59.954Z,8.48
2023-05-16T02:39:26.277Z,8.77
2023-05-16T02:41:52.480Z,8.50
2023-05-16T02:44:18.723Z,9.18
2023-05-16T02:46:45.012Z,8.90
2023-05-16T02:49:11.298Z,8.60
2023-05-16T02:51:37.501Z,9.77
2023-05-16T02:54:03.757Z,9.48
2023-05-16T02:56:29.950Z,9.18
2023-05-16T02:58:56.377Z,10.13
2023-05-16T03:01:22.793Z,10.38
2023-05-16T03:03:49.297Z,10.70
2023-05-16T03:06:16.180Z,10.88
2023-05-16T03:08:42.395Z,10.35
2023-05-16T03:11:08.615Z,11.25
2023-05-16T03:13:34.875Z,11.27
2023-05-16T03:16:01.381Z,11.00
2023-05-16T03:18:27.656Z,10.27
2023-05-16T03:20:54.043Z,9.80
2023-05-16T03:23:20.809Z,9.93
2023-05-16T03:25:47.731Z,9.68
2023-05-16T03:28:15.313Z,8.13
2023-05-16T03:30:42.064Z,8.30
2023-05-16T03:33:08.357Z,7.00
2023-05-16T03:35:35.208Z,6.88
2023-05-16T03:38:01.493Z,6.72
2023-05-16T03:40:27.788Z,6.70
2023-05-16T03:42:54.024Z,6.70
2023-05-16T03:45:20.295Z,6.82
2023-05-16T03:47:46.782Z,6.38
2023-05-16T03:50:13.104Z,5.85
2023-05-16T03:52:39.332Z,6.43
2023-05-16T03:55:05.958Z,6.32
2023-05-16T03:57:32.532Z,6.05
2023-05-16T03:59:58.867Z,6.63
2023-05-16T04:02:25.579Z,6.07
2023-05-16T04:04:51.888Z,6.45
2023-05-16T04:07:18.084Z,6.25
2023-05-16T04:09:45.038Z,6.13
2023-05-16T04:12:11.236Z,6.50
2023-05-16T04:14:38.105Z,6.60
2023-05-16T04:17:04.451Z,6.78
2023-05-16T04:19:31.064Z,6.55
2023-05-16T04:21:57.263Z,7.15
2023-05-16T04:24:26.384Z,7.97
2023-05-16T04:26:52.760Z,6.97
2023-05-16T04:29:19.529Z,7.47
2023-05-16T04:31:45.842Z,8.18
2023-05-16T04:34:13.015Z,7.93
2023-05-16T04:36:39.264Z,8.48
2023-05-16T04:39:06.224Z,8.00
2023-05-16T04:41:33.606Z,7.78
2023-05-16T04:44:01.615Z,7.35
2023-05-16T04:46:27.882Z,6.60
2023-05-16T04:48:54.081Z,5.35
2023-05-16T04:51:20.331Z,4.82
2023-05-16T04:53:46.531Z,5.10
2023-05-16T04:56:12.797Z,4.55
2023-05-16T04:58:41.016Z,4.35
2023-05-16T05:01:08.494Z,4.75
2023-05-16T05:03:34.964Z,5.13
2023-05-16T05:06:01.570Z,5.20
2023-05-16T05:08:28.044Z,4.65
2023-05-16T05:10:55.846Z,5.65
2023-05-16T05:13:22.112Z,5.35
2023-05-16T05:15:50.244Z,5.32
2023-05-16T05:18:16.889Z,6.05
2023-05-16T05:20:43.432Z,6.47
2023-05-16T05:23:09.688Z,5.35
2023-05-16T05:25:37.665Z,6.97
2023-05-16T05:28:04.261Z,6.32
2023-05-16T05:30:30.537Z,5.60
2023-05-16T05:32:56.960Z,6.28
2023-05-16T05:35:23.220Z,5.32
2023-05-16T05:37:49.426Z,4.93
2023-05-16T05:40:16.132Z,5.53
2023-05-16T05:42:44.128Z,4.70
2023-05-16T05:45:11.645Z,5.18
2023-05-16T05:47:38.133Z,4.13
2023-05-16T05:50:04.766Z,4.53
2023-05-16T05:52:30.975Z,4.70
2023-05-16T05:54:59.319Z,3.60
2023-05-16T05:57:26.086Z,3.72
2023-05-16T05:59:52.308Z,4.47
2023-05-16T06:02:18.716Z,3.85
2023-05-16T06:04:45.263Z,3.55
2023-05-16T06:07:11.616Z,3.50
2023-05-16T06:09:37.922Z,3.70
2023-05-16T06:12:04.474Z,3.40
2023-05-16T06:14:30.819Z,3.33
2023-05-16T06:16:57.060Z,3.00
2023-05-16T06:19:23.420Z,3.47
2023-05-16T06:21:49.722Z,2.80
2023-05-16T06:24:16.097Z,2.95
2023-05-16T06:26:42.394Z,3.30
2023-05-16T06:29:08.664Z,2.28
2023-05-16T06:31:34.914Z,2.53
2023-05-16T06:34:01.254Z,2.33
2023-05-16T06:36:27.464Z,1.92
2023-05-16T06:38:53.693Z,2.72
2023-05-16T06:41:19.888Z,2.15
2023-05-16T06:43:46.121Z,2.45
2023-05-16T06:46:12.417Z,3.00
2023-05-16T06:48:38.682Z,3.45
2023-05-16T06:51:05.082Z,2.58
2023-05-16T06:53:31.362Z,2.70
2023-05-16T06:55:57.618Z,2.78
2023-05-16T06:58:23.874Z,3.03
2023-05-16T07:00:50.590Z,2.72
2023-05-16T07:03:16.952Z,2.83
2023-05-16T07:05:43.272Z,2.40
2023-05-16T07:08:13.630Z,2.22
2023-05-16T07:10:39.871Z,2.17
2023-05-16T07:13:06.884Z,2.58
2023-05-16T07:15:33.250Z,2.83
2023-05-16T07:17:59.557Z,3.13
2023-05-16T07:20:25.854Z,2.90
2023-05-16T07:22:52.161Z,3.78
2023-05-16T07:25:18.583Z,4.35
2023-05-16T07:27:45.451Z,4.03
2023-05-16T07:30:12.975Z,3.95
2023-05-16T07:32:39.907Z,4.22
2023-05-16T07:35:06.695Z,3.97
2023-05-16T07:37:32.980Z,3.85
2023-05-16T07:39:59.243Z,4.20
2023-05-16T07:42:25.508Z,4.53
2023-05-16T07:44:51.791Z,3.70
2023-05-16T07:47:18.105Z,3.90
2023-05-16T07:49:44.375Z,3.92
2023-05-16T07:52:10.732Z,4.50
2023-05-16T07:54:37.719Z,3.88
2023-05-16T07:57:04.150Z,3.47
2023-05-16T07:59:30.684Z,4.05
2023-05-16T08:01:57.148Z,4.35
2023-05-16T08:04:23.410Z,4.40
2023-05-16T08:06:49.850Z,4.03
2023-05-16T08:09:16.146Z,5.03
2023-05-16T08:11:45.342Z,4.93
2023-05-16T08:14:11.888Z,4.25
2023-05-16T08:16:38.246Z,3.92
2023-05-16T08:19:04.666Z,4.00
2023-05-16T08:21:31.838Z,4.05
2023-05-16T08:23:58.262Z,4.00
2023-05-16T08:26:24.975Z,3.63
2023-05-16T08:28:51.249Z,3.85
2023-05-16T08:31:17.562Z,3.72
2023-05-16T08:33:43.876Z,3.63
2023-05-16T08:36:10.196Z,3.38
2023-05-16T08:38:36.838Z,3.00
2023-05-16T08:41:03.240Z,2.80
2023-05-16T08:43:29.575Z,3.65
2023-05-16T08:45:57.270Z,3.17
2023-05-16T08:48:24.033Z,2.50
2023-05-16T08:50:50.420Z,2.97
2023-05-16T08:53:20.563Z,4.35
2023-05-16T08:55:48.315Z,3.42
2023-05-16T08:58:14.837Z,3.08
2023-05-16T09:00:41.196Z,2.78
2023-05-16T09:03:07.922Z,2.70
2023-05-16T09:05:34.604Z,2.80
2023-05-16T09:08:00.912Z,2.53
2023-05-16T09:10:27.237Z,1.98
2023-05-16T09:12:53.523Z,2.22
2023-05-16T09:15:21.339Z,2.05
2023-05-16T09:17:47.960Z,2.30
2023-05-16T09:20:16.149Z,2.83
2023-05-16T09:22:58.975Z,2.22
2023-05-16T09:25:31.338Z,2.30
2023-05-16T09:27:59.292Z,2.70
2023-05-16T09:30:30.112Z,2.40
2023-05-16T09:32:56.461Z,2.15
2023-05-16T09:35:35.167Z,2.33
2023-05-16T09:38:18.341Z,2.03
2023-05-16T09:40:45.666Z,3.42
2023-05-16T09:43:14.605Z,2.53
2023-05-16T09:45:45.023Z,2.33
2023-05-16T09:48:15.596Z,2.17
2023-05-16T09:50:46.581Z,2.00
2023-05-16T09:53:13.753Z,2.22
2023-05-16T09:55:39.998Z,1.88
2023-05-16T09:58:06.480Z,1.90
2023-05-16T10:00:33.554Z,2.15
2023-05-16T10:03:03.484Z,1.98
2023-05-16T10:07:57.832Z,1.95
2023-05-16T10:10:24.593Z,2.30
2023-05-16T10:12:51.101Z,1.90
2023-05-16T10:15:17.754Z,2.05
2023-05-16T10:17:45.848Z,1.63
2023-05-16T10:20:12.575Z,2.20
2023-05-16T10:22:42.513Z,1.95
2023-05-16T10:25:14.999Z,1.90
2023-05-16T10:27:42.048Z,1.70
2023-05-16T10:30:13.072Z,1.45
2023-05-16T10:32:41.911Z,1.50
2023-05-16T10:35:09.524Z,1.65
2023-05-16T10:37:36.595Z,1.95
2023-05-16T10:40:05.751Z,1.75
2023-05-16T10:42:32.419Z,1.50
2023-05-16T10:45:17.942Z,1.77
2023-05-16T10:47:57.574Z,1.67
2023-05-16T10:50:43.692Z,4.10
2023-05-16T10:53:16.425Z,1.85
2023-05-16T10:55:51.034Z,1.40
2023-05-16T10:58:24.262Z,1.70
2023-05-16T11:01:10.847Z,1.63
2023-05-16T11:03:37.248Z,1.40
2023-05-16T11:06:04.497Z,1.45
2023-05-16T11:08:33.745Z,1.40
2023-05-16T11:11:40.343Z,1.88
2023-05-16T11:14:06.676Z,1.92
2023-05-16T11:16:33.914Z,2.05
2023-05-16T11:19:04.633Z,2.05
2023-05-16T11:21:49.938Z,1.67
2023-05-16T11:24:29.859Z,3.03
2023-05-16T11:26:56.417Z,1.80
2023-05-16T11:29:25.567Z,1.77
2023-05-16T11:31:52.877Z,1.80
2023-05-16T11:34:19.290Z,1.52
2023-05-16T11:36:46.194Z,1.80
2023-05-16T11:39:12.450Z,1.80
2023-05-16T11:41:38.836Z,1.83
2023-05-16T11:44:06.588Z,1.60
2023-05-16T11:46:33.591Z,1.60
2023-05-16T11:48:59.858Z,1.45
2023-05-16T11:51:26.263Z,1.50
2023-05-16T11:53:53.133Z,1.75
2023-05-16T11:56:21.593Z,1.65
2023-05-16T11:58:48.095Z,1.65
2023-05-16T12:01:14.413Z,1.80
2023-05-16T12:03:40.907Z,2.15
2023-05-16T12:06:07.827Z,1.60
2023-05-16T12:08:34.182Z,1.80
2023-05-16T12:11:00.596Z,1.42
2023-05-16T12:13:27.029Z,1.73
2023-05-16T12:15:53.427Z,1.40
2023-05-16T12:18:21.840Z,1.40
2023-05-16T12:20:48.267Z,5.32
2023-05-16T12:23:14.608Z,1.13
2023-05-16T12:25:46.225Z,1.27
2023-05-16T12:28:13.287Z,0.90
2023-05-16T12:30:43.175Z,0.80
2023-05-16T12:33:10.473Z,1.10
2023-05-16T12:35:40.845Z,1.13
2023-05-16T12:38:10.937Z,1.00
2023-05-16T12:40:37.532Z,1.20
2023-05-16T12:43:03.851Z,1.30
2023-05-16T12:45:30.309Z,1.10
2023-05-16T12:47:56.736Z,1.30
2023-05-16T12:50:23.207Z,1.08
2023-05-16T12:52:50.659Z,1.20
2023-05-16T12:55:20.976Z,1.08
2023-05-16T12:57:48.076Z,1.10
2023-05-16T13:00:15.704Z,1.20
2023-05-16T13:02:42.369Z,1.05
2023-05-16T13:05:09.222Z,1.38
2023-05-16T13:07:35.804Z,1.27
2023-05-16T13:10:02.178Z,1.40
2023-05-16T13:12:28.547Z,1.60
2023-05-16T13:14:54.812Z,1.60
2023-05-16T13:17:21.071Z,1.00
2023-05-16T13:19:48.920Z,1.10
2023-05-16T13:22:15.517Z,1.10
2023-05-16T13:24:41.813Z,0.93
2023-05-16T13:27:08.070Z,1.00
2023-05-16T13:29:34.329Z,0.80
2023-05-16T13:32:00.683Z,0.77
2023-05-16T13:34:27.133Z,1.13
2023-05-16T13:36:54.946Z,0.88
2023-05-16T13:39:22.158Z,0.70
2023-05-16T13:41:49.109Z,1.23
2023-05-16T13:44:16.102Z,0.90
2023-05-16T13:46:42.352Z,1.25
2023-05-16T13:49:08.589Z,1.23
2023-05-16T13:51:34.867Z,1.00
2023-05-16T13:54:01.144Z,1.00
2023-05-16T13:56:27.393Z,0.90
2023-05-16T13:59:03.931Z,0.90
2023-05-16T14:01:33.079Z,1.35
2023-05-16T14:03:59.552Z,0.77
2023-05-16T14:06:25.940Z,1.13
2023-05-16T14:08:52.202Z,0.95
2023-05-16T14:11:19.823Z,0.90
2023-05-16T14:13:46.481Z,1.00
2023-05-16T14:16:12.977Z,1.30
2023-05-16T14:18:39.323Z,1.00
2023-05-16T14:21:05.751Z,1.20
2023-05-16T14:23:31.992Z,1.05
2023-05-16T14:25:58.220Z,1.17
2023-05-16T14:28:24.465Z,0.82
2023-05-16T14:30:50.755Z,0.88
2023-05-16T14:33:17.070Z,1.05
2023-05-16T14:35:43.402Z,1.10
2023-05-16T14:38:10.048Z,1.48
2023-05-16T14:40:36.346Z,1.20
2023-05-16T14:43:04.355Z,1.23
2023-05-16T14:45:30.828Z,1.20
2023-05-16T14:47:57.195Z,1.17
2023-05-16T14:50:25.622Z,1.40
2023-05-16T14:52:52.985Z,1.25
2023-05-16T14:55:19.456Z,1.20
2023-05-16T14:57:46.206Z,1.13
2023-05-16T15:00:15.402Z,1.10
2023-05-16T15:02:41.693Z,1.45
2023-05-16T15:05:08.255Z,1.20
2023-05-16T15:07:34.888Z,1.60
2023-05-16T15:10:01.843Z,1.35
2023-05-16T15:12:28.077Z,1.25
2023-05-16T15:14:54.328Z,1.33
2023-05-16T15:17:20.681Z,1.65
2023-05-16T15:19:48.864Z,1.45
2023-05-16T15:22:15.096Z,2.08
2023-05-16T15:24:41.531Z,1.40
2023-05-16T15:27:07.860Z,1.63
2023-05-16T15:29:34.119Z,1.30
2023-05-16T15:32:03.418Z,1.95
2023-05-16T15:34:29.718Z,1.98
2023-05-16T15:36:55.978Z,1.40
2023-05-16T15:39:22.255Z,1.80
2023-05-16T15:42:08.538Z,2.78
2023-05-16T15:44:35.078Z,1.58
2023-05-16T15:47:01.617Z,1.52
2023-05-16T15:49:27.874Z,1.83
2023-05-16T15:51:54.375Z,1.80
2023-05-16T15:54:20.999Z,1.85
2023-05-16T15:56:47.427Z,1.95
2023-05-16T15:59:13.715Z,1.65
2023-05-16T16:01:40.002Z,2.10
2023-05-16T16:04:06.814Z,2.05
2023-05-16T16:06:33.218Z,1.92
2023-05-16T16:08:59.560Z,2.25
2023-05-16T16:11:26.531Z,2.75
2023-05-16T16:13:52.788Z,1.85
2023-05-16T16:16:19.127Z,1.75
2023-05-16T16:18:45.639Z,1.80
2023-05-16T16:21:12.319Z,1.80
2023-05-16T16:23:39.008Z,1.58
2023-05-16T16:26:06.038Z,1.92
2023-05-16T16:28:32.416Z,1.80
2023-05-16T16:30:58.731Z,1.77
2023-05-16T16:33:25.104Z,1.90
2023-05-16T16:35:57.501Z,2.42
2023-05-16T16:38:23.764Z,1.95
2023-05-16T16:40:50.008Z,2.00
2023-05-16T16:43:16.263Z,2.08
2023-05-16T16:45:42.487Z,1.70
2023-05-16T16:48:11.626Z,1.90
2023-05-16T16:50:37.940Z,1.70
2023-05-16T16:53:05.179Z,2.03
2023-05-16T16:55:31.577Z,2.22
2023-05-16T16:57:57.862Z,2.08
2023-05-16T17:00:24.422Z,2.90
2023-05-16T17:02:50.831Z,2.65
2023-05-16T17:05:17.158Z,2.15
2023-05-16T17:07:43.769Z,2.10
2023-05-16T17:10:10.178Z,1.70
2023-05-16T17:12:40.583Z,1.90
2023-05-16T17:15:07.341Z,1.70
2023-05-16T17:17:33.909Z,2.00
2023-05-16T17:20:00.556Z,2.95
2023-05-16T17:22:27.155Z,2.05
2023-05-16T17:24:53.728Z,2.05
2023-05-16T17:27:20.059Z,1.83
2023-05-16T17:29:46.290Z,2.03
2023-05-16T17:32:12.537Z,1.95
2023-05-16T17:34:38.878Z,2.13
2023-05-16T17:37:06.656Z,2.67
2023-05-16T17:39:33.656Z,2.40
2023-05-16T17:41:59.971Z,2.08
2023-05-16T17:44:26.263Z,2.47
2023-05-16T17:46:53.620Z,2.42
2023-05-16T17:49:21.318Z,2.35
2023-05-16T17:51:54.662Z,2.30
2023-05-16T17:54:22.398Z,2.33
2023-05-16T17:56:50.145Z,2.40
2023-05-16T17:59:16.485Z,2.38
2023-05-16T18:01:43.411Z,2.40
2023-05-16T18:04:09.858Z,2.10
2023-05-16T18:06:39.208Z,2.25
2023-05-16T18:09:10.380Z,2.53
2023-05-16T18:11:38.659Z,2.60
2023-05-16T18:14:05.011Z,2.17
2023-05-16T18:16:31.464Z,2.30
2023-05-16T18:18:58.065Z,2.35
2023-05-16T18:21:24.583Z,2.40
2023-05-16T18:23:50.967Z,2.33
2023-05-16T18:26:17.834Z,2.65
2023-05-16T18:28:44.234Z,3.58
2023-05-16T18:31:10.920Z,7.55
2023-05-16T18:33:37.259Z,5.57
2023-05-16T18:36:04.528Z,4.30
2023-05-16T18:38:33.205Z,2.92
2023-05-16T18:41:00.126Z,3.33
2023-05-16T18:43:26.474Z,3.70
2023-05-16T18:45:52.823Z,2.42
2023-05-16T18:48:19.423Z,2.83
2023-05-16T18:50:45.893Z,2.05
2023-05-16T18:53:12.140Z,2.08
2023-05-16T18:55:38.464Z,2.10
2023-05-16T18:58:04.803Z,2.08
2023-05-16T19:00:31.620Z,2.22
2023-05-16T19:02:58.058Z,2.03
2023-05-16T19:05:24.566Z,2.10
2023-05-16T19:07:50.976Z,2.03
2023-05-16T19:10:17.343Z,1.95
2023-05-16T19:12:46.631Z,1.90
2023-05-16T19:15:12.890Z,1.73
2023-05-16T19:17:41.498Z,1.95
2023-05-16T19:20:09.274Z,2.10
2023-05-16T19:22:35.985Z,1.92
2023-05-16T19:25:05.077Z,1.88
2023-05-16T19:27:31.517Z,2.00
2023-05-16T19:29:57.805Z,1.80
2023-05-16T19:32:24.160Z,1.30
2023-05-16T19:34:50.496Z,1.48
2023-05-16T19:37:16.824Z,1.75
2023-05-16T19:39:43.056Z,1.95
2023-05-16T19:42:09.317Z,2.05
2023-05-16T19:44:35.713Z,1.75
2023-05-16T19:47:01.956Z,1.90
2023-05-16T19:49:28.953Z,1.80
2023-05-16T19:51:55.439Z,1.55
2023-05-16T19:54:21.735Z,2.15
2023-05-16T19:56:48.001Z,1.58
2023-05-16T19:59:14.262Z,1.67
2023-05-16T20:04:07.330Z,1.80
2023-05-16T20:06:33.756Z,1.55
2023-05-16T20:09:00.019Z,1.40
2023-05-16T20:11:26.436Z,2.03
2023-05-16T20:13:55.473Z,1.90
2023-05-16T20:16:21.804Z,1.77
2023-05-16T20:18:48.227Z,1.52
2023-05-16T20:21:14.610Z,1.75
2023-05-16T20:23:40.991Z,2.03
2023-05-16T20:26:07.295Z,1.55
2023-05-16T20:28:33.547Z,1.60
2023-05-16T20:30:59.865Z,1.80
2023-05-16T20:33:26.356Z,2.00
2023-05-16T20:35:52.740Z,1.63
2023-05-16T20:38:19.078Z,2.22
2023-05-16T20:40:47.352Z,1.60
2023-05-16T20:43:13.595Z,1.50
2023-05-16T20:45:39.847Z,1.50
2023-05-16T20:48:06.226Z,2.35
2023-05-16T20:50:35.886Z,1.80
2023-05-16T20:53:02.750Z,1.48
2023-05-16T20:55:29.211Z,1.50
2023-05-16T20:57:55.760Z,1.80
2023-05-16T21:00:22.006Z,1.50
2023-05-16T21:02:48.311Z,1.50
2023-05-16T21:05:34.661Z,1.67
2023-05-16T21:08:01.191Z,2.00
2023-05-16T21:10:27.781Z,1.88
2023-05-16T21:12:54.044Z,2.03
2023-05-16T21:15:25.167Z,2.00
2023-05-16T21:17:51.547Z,1.80
2023-05-16T21:20:17.960Z,1.60
2023-05-16T21:22:44.218Z,2.17
2023-05-16T21:25:10.567Z,1.70
2023-05-16T21:27:36.968Z,1.63
2023-05-16T21:30:03.914Z,2.45
2023-05-16T21:32:32.367Z,1.73
2023-05-16T21:35:00.896Z,2.30
2023-05-16T21:37:27.159Z,1.88
2023-05-16T21:39:53.462Z,1.70
2023-05-16T21:42:21.014Z,1.30
2023-05-16T21:44:47.262Z,1.88
2023-05-16T21:47:13.522Z,1.58
2023-05-16T21:49:39.865Z,1.92
2023-05-16T21:52:07.299Z,1.83
2023-05-16T21:54:34.097Z,2.10
2023-05-16T21:57:00.556Z,2.38
2023-05-16T21:59:26.812Z,1.70
2023-05-16T22:01:53.111Z,2.15
2023-05-16T22:04:19.519Z,1.95
2023-05-16T22:06:45.807Z,1.83
2023-05-16T22:09:12.346Z,2.30
2023-05-16T22:11:38.593Z,1.60
2023-05-16T22:14:04.865Z,2.20
2023-05-16T22:16:31.174Z,1.80
2023-05-16T22:18:57.600Z,2.03
2023-05-16T22:21:24.015Z,1.92
2023-05-16T22:23:50.385Z,2.22
2023-05-16T22:26:16.699Z,2.00
2023-05-16T22:28:43.017Z,1.92
2023-05-16T22:31:09.364Z,1.90
2023-05-16T22:33:35.791Z,1.73
2023-05-16T22:36:03.158Z,1.83
2023-05-16T22:38:29.411Z,2.03
2023-05-16T22:40:55.801Z,2.10
2023-05-16T22:43:22.059Z,1.75
2023-05-16T22:45:51.254Z,2.17
2023-05-16T22:48:17.623Z,1.92
2023-05-16T22:50:43.961Z,1.52
2023-05-16T22:53:10.214Z,2.05
2023-05-16T22:55:36.448Z,1.92
2023-05-16T22:58:02.759Z,1.80
2023-05-16T23:00:29.009Z,1.70
2023-05-16T23:02:55.357Z,1.90
2023-05-16T23:05:21.700Z,2.15
2023-05-16T23:07:47.979Z,1.95
2023-05-16T23:10:14.281Z,1.90
2023-05-16T23:12:40.633Z,1.75
2023-05-16T23:15:09.939Z,1.70
2023-05-16T23:17:37.462Z,1.90
2023-05-16T23:20:04.751Z,1.92
2023-05-16T23:22:31.296Z,1.92
2023-05-16T23:24:57.586Z,2.00
2023-05-16T23:27:23.906Z,1.98
2023-05-16T23:29:50.304Z,2.10
2023-05-16T23:32:16.732Z,1.95
2023-05-16T23:34:43.074Z,1.92
2023-05-16T23:37:09.320Z,2.00
2023-05-16T23:39:36.181Z,2.13
2023-05-16T23:42:02.569Z,1.98
2023-05-16T23:44:28.887Z,2.40
2023-05-16T23:46:55.356Z,2.22
2023-05-16T23:49:21.622Z,2.10
2023-05-16T23:51:57.500Z,1.92
2023-05-16T23:54:24.099Z,1.75
2023-05-16T23:56:50.857Z,2.40
2023-05-16T23:59:18.770Z,1.67
